sensor_id;sensor_type;location;lat;lon;timestamp;pressure;altitude;pressure_sealevel;temperature;humidity
14232;BME280;7200;52.194;9.900;2022-07-21T00:00:57;100581.34;;;25.24;65.09
14232;BME280;7200;52.194;9.900;2022-07-21T00:03:23;100559.75;;;25.15;65.76
14232;BME280;7200;52.194;9.900;2022-07-21T00:05:48;100576.94;;;25.23;65.66
14232;BME280;7200;52.194;9.900;2022-07-21T00:08:14;100544.25;;;25.07;66.39
14232;BME280;7200;52.194;9.900;2022-07-21T00:10:39;100557.22;;;25.03;66.97
14232;BME280;7200;52.194;9.900;2022-07-21T00:13:05;100564.31;;;25.04;67.05
14232;BME280;7200;52.194;9.900;2022-07-21T00:15:30;100554.81;;;25.00;67.66
14232;BME280;7200;52.194;9.900;2022-07-21T00:17:57;100568.16;;;25.02;67.96
14232;BME280;7200;52.194;9.900;2022-07-21T00:20:23;100573.56;;;25.02;68.17
14232;BME280;7200;52.194;9.900;2022-07-21T00:22:49;100569.84;;;25.03;68.50
14232;BME280;7200;52.194;9.900;2022-07-21T00:25:15;100565.31;;;24.94;68.65
14232;BME280;7200;52.194;9.900;2022-07-21T00:27:41;100594.84;;;25.05;68.55
14232;BME280;7200;52.194;9.900;2022-07-21T00:30:08;100609.78;;;25.09;68.81
14232;BME280;7200;52.194;9.900;2022-07-21T00:32:34;100622.72;;;25.05;69.02
14232;BME280;7200;52.194;9.900;2022-07-21T00:34:59;100633.06;;;25.10;69.20
14232;BME280;7200;52.194;9.900;2022-07-21T00:37:24;100632.50;;;25.06;69.26
14232;BME280;7200;52.194;9.900;2022-07-21T00:39:52;100636.22;;;25.05;69.46
14232;BME280;7200;52.194;9.900;2022-07-21T00:42:27;100646.31;;;25.03;70.03
14232;BME280;7200;52.194;9.900;2022-07-21T00:44:53;100651.16;;;25.00;70.28
14232;BME280;7200;52.194;9.900;2022-07-21T00:47:20;100656.81;;;24.97;70.65
14232;BME280;7200;52.194;9.900;2022-07-21T00:49:46;100665.19;;;24.94;70.98
14232;BME280;7200;52.194;9.900;2022-07-21T00:52:12;100643.91;;;24.81;71.66
14232;BME280;7200;52.194;9.900;2022-07-21T00:54:37;100653.56;;;24.74;72.61
14232;BME280;7200;52.194;9.900;2022-07-21T00:57:03;100659.38;;;24.69;73.38
14232;BME280;7200;52.194;9.900;2022-07-21T00:59:29;100661.66;;;24.54;74.86
14232;BME280;7200;52.194;9.900;2022-07-21T01:01:55;100674.72;;;24.59;76.30
14232;BME280;7200;52.194;9.900;2022-07-21T01:04:20;100675.66;;;24.48;79.32
14232;BME280;7200;52.194;9.900;2022-07-21T01:06:46;100671.13;;;24.39;84.14
14232;BME280;7200;52.194;9.900;2022-07-21T01:09:11;100673.09;;;24.27;87.36
14232;BME280;7200;52.194;9.900;2022-07-21T01:11:37;100662.75;;;24.22;88.53
14232;BME280;7200;52.194;9.900;2022-07-21T01:14:03;100653.78;;;24.22;89.13
14232;BME280;7200;52.194;9.900;2022-07-21T01:16:28;100649.06;;;24.14;89.78
14232;BME280;7200;52.194;9.900;2022-07-21T01:18:54;100628.09;;;24.18;90.61
14232;BME280;7200;52.194;9.900;2022-07-21T01:21:28;100629.50;;;24.22;92.53
14232;BME280;7200;52.194;9.900;2022-07-21T01:23:54;100635.00;;;24.01;94.08
14232;BME280;7200;52.194;9.900;2022-07-21T01:26:19;100639.78;;;23.87;95.20
14232;BME280;7200;52.194;9.900;2022-07-21T01:28:45;100648.00;;;23.86;95.72
14232;BME280;7200;52.194;9.900;2022-07-21T01:31:11;100648.06;;;23.75;96.65
14232;BME280;7200;52.194;9.900;2022-07-21T01:33:36;100642.69;;;23.75;97.19
14232;BME280;7200;52.194;9.900;2022-07-21T01:36:01;100642.22;;;23.69;98.06
14232;BME280;7200;52.194;9.900;2022-07-21T01:38:27;100650.59;;;23.66;98.08
14232;BME280;7200;52.194;9.900;2022-07-21T01:41:11;100648.31;;;23.62;98.91
14232;BME280;7200;52.194;9.900;2022-07-21T01:43:56;100625.91;;;23.61;99.52
14232;BME280;7200;52.194;9.900;2022-07-21T01:46:22;100600.50;;;23.54;100.00
14232;BME280;7200;52.194;9.900;2022-07-21T01:48:47;100609.34;;;23.35;100.00
14232;BME280;7200;52.194;9.900;2022-07-21T01:51:12;100653.94;;;23.49;100.00
14232;BME280;7200;52.194;9.900;2022-07-21T01:53:38;100632.94;;;23.52;100.00
14232;BME280;7200;52.194;9.900;2022-07-21T01:56:04;100595.66;;;23.48;100.00
14232;BME280;7200;52.194;9.900;2022-07-21T01:58:30;100621.97;;;23.35;100.00
14232;BME280;7200;52.194;9.900;2022-07-21T02:00:56;100645.09;;;23.16;100.00
14232;BME280;7200;52.194;9.900;2022-07-21T02:03:21;100656.44;;;23.20;100.00
14232;BME280;7200;52.194;9.900;2022-07-21T02:05:47;100638.59;;;23.19;100.00
14232;BME280;7200;52.194;9.900;2022-07-21T02:08:12;100633.59;;;22.93;100.00
14232;BME280;7200;52.194;9.900;2022-07-21T02:10:37;100638.69;;;22.96;100.00
14232;BME280;7200;52.194;9.900;2022-07-21T02:13:03;100623.47;;;22.64;100.00
14232;BME280;7200;52.194;9.900;2022-07-21T02:15:29;100610.69;;;22.57;100.00
14232;BME280;7200;52.194;9.900;2022-07-21T02:17:55;100605.00;;;22.39;100.00
14232;BME280;7200;52.194;9.900;2022-07-21T02:20:20;100594.88;;;22.20;100.00
14232;BME280;7200;52.194;9.900;2022-07-21T02:22:46;100578.94;;;21.95;100.00
14232;BME280;7200;52.194;9.900;2022-07-21T02:25:12;100582.41;;;21.75;100.00
14232;BME280;7200;52.194;9.900;2022-07-21T02:27:38;100571.56;;;21.54;100.00
14232;BME280;7200;52.194;9.900;2022-07-21T02:30:04;100603.28;;;21.49;100.00
14232;BME280;7200;52.194;9.900;2022-07-21T02:32:30;100629.91;;;21.52;100.00
14232;BME280;7200;52.194;9.900;2022-07-21T02:34:55;100648.59;;;21.53;100.00
14232;BME280;7200;52.194;9.900;2022-07-21T02:37:21;100665.03;;;21.49;100.00
14232;BME280;7200;52.194;9.900;2022-07-21T02:39:46;100682.16;;;21.59;100.00
14232;BME280;7200;52.194;9.900;2022-07-21T02:42:12;100686.78;;;21.68;100.00
14232;BME280;7200;52.194;9.900;2022-07-21T02:44:37;100674.69;;;21.63;100.00
14232;BME280;7200;52.194;9.900;2022-07-21T02:47:03;100658.59;;;21.85;100.00
14232;BME280;7200;52.194;9.900;2022-07-21T02:49:28;100630.84;;;21.85;100.00
14232;BME280;7200;52.194;9.900;2022-07-21T02:51:54;100632.19;;;21.90;100.00
14232;BME280;7200;52.194;9.900;2022-07-21T02:54:19;100619.88;;;21.76;100.00
14232;BME280;7200;52.194;9.900;2022-07-21T02:56:44;100618.66;;;21.81;100.00
14232;BME280;7200;52.194;9.900;2022-07-21T02:59:10;100618.53;;;21.82;100.00
14232;BME280;7200;52.194;9.900;2022-07-21T03:01:35;100613.63;;;21.99;100.00
14232;BME280;7200;52.194;9.900;2022-07-21T03:04:00;100593.47;;;22.04;100.00
14232;BME280;7200;52.194;9.900;2022-07-21T03:06:26;100584.69;;;22.02;100.00
14232;BME280;7200;52.194;9.900;2022-07-21T03:08:51;100586.84;;;22.08;100.00
14232;BME280;7200;52.194;9.900;2022-07-21T03:11:16;100573.00;;;22.24;100.00
14232;BME280;7200;52.194;9.900;2022-07-21T03:13:41;100570.25;;;22.47;100.00
14232;BME280;7200;52.194;9.900;2022-07-21T03:16:07;100587.09;;;22.49;100.00
14232;BME280;7200;52.194;9.900;2022-07-21T03:18:32;100587.75;;;22.41;100.00
14232;BME280;7200;52.194;9.900;2022-07-21T03:20:57;100579.94;;;22.38;100.00
14232;BME280;7200;52.194;9.900;2022-07-21T03:23:23;100582.19;;;22.54;100.00
14232;BME280;7200;52.194;9.900;2022-07-21T03:25:48;100568.50;;;22.57;100.00
14232;BME280;7200;52.194;9.900;2022-07-21T03:28:14;100564.63;;;22.50;100.00
14232;BME280;7200;52.194;9.900;2022-07-21T03:30:40;100574.53;;;22.49;100.00
14232;BME280;7200;52.194;9.900;2022-07-21T03:33:05;100585.59;;;22.24;100.00
14232;BME280;7200;52.194;9.900;2022-07-21T03:35:31;100612.63;;;22.11;100.00
14232;BME280;7200;52.194;9.900;2022-07-21T03:37:58;100629.38;;;21.92;100.00
14232;BME280;7200;52.194;9.900;2022-07-21T03:40:26;100633.78;;;21.93;100.00
14232;BME280;7200;52.194;9.900;2022-07-21T03:42:57;100635.97;;;21.99;100.00
14232;BME280;7200;52.194;9.900;2022-07-21T03:45:24;100623.03;;;22.04;100.00
14232;BME280;7200;52.194;9.900;2022-07-21T03:47:49;100590.47;;;22.19;100.00
14232;BME280;7200;52.194;9.900;2022-07-21T03:50:15;100585.25;;;22.17;100.00
14232;BME280;7200;52.194;9.900;2022-07-21T03:52:42;100586.03;;;21.96;100.00
14232;BME280;7200;52.194;9.900;2022-07-21T03:55:08;100615.97;;;21.81;100.00
14232;BME280;7200;52.194;9.900;2022-07-21T03:57:46;100622.81;;;21.51;100.00
14232;BME280;7200;52.194;9.900;2022-07-21T04:00:15;100639.41;;;21.45;100.00
14232;BME280;7200;52.194;9.900;2022-07-21T04:02:40;100639.84;;;21.27;100.00
14232;BME280;7200;52.194;9.900;2022-07-21T04:05:13;100652.44;;;21.27;100.00
14232;BME280;7200;52.194;9.900;2022-07-21T04:07:40;100648.63;;;21.29;100.00
14232;BME280;7200;52.194;9.900;2022-07-21T04:10:08;100661.06;;;21.30;100.00
14232;BME280;7200;52.194;9.900;2022-07-21T04:12:34;100654.66;;;21.44;100.00
14232;BME280;7200;52.194;9.900;2022-07-21T04:14:59;100680.25;;;21.37;100.00
14232;BME280;7200;52.194;9.900;2022-07-21T04:17:24;100677.31;;;21.29;100.00
14232;BME280;7200;52.194;9.900;2022-07-21T04:19:50;100671.31;;;21.25;100.00
14232;BME280;7200;52.194;9.900;2022-07-21T04:22:15;100685.97;;;21.21;100.00
14232;BME280;7200;52.194;9.900;2022-07-21T04:24:41;100705.06;;;21.16;100.00
14232;BME280;7200;52.194;9.900;2022-07-21T04:27:07;100701.66;;;21.14;100.00
14232;BME280;7200;52.194;9.900;2022-07-21T04:29:32;100708.88;;;21.14;100.00
14232;BME280;7200;52.194;9.900;2022-07-21T04:31:58;100707.03;;;21.14;100.00
14232;BME280;7200;52.194;9.900;2022-07-21T04:34:23;100718.00;;;21.23;100.00
14232;BME280;7200;52.194;9.900;2022-07-21T04:36:49;100706.44;;;21.22;100.00
14232;BME280;7200;52.194;9.900;2022-07-21T04:39:14;100722.78;;;21.30;100.00
14232;BME280;7200;52.194;9.900;2022-07-21T04:41:39;100726.06;;;21.23;100.00
14232;BME280;7200;52.194;9.900;2022-07-21T04:44:05;100718.28;;;21.19;100.00
14232;BME280;7200;52.194;9.900;2022-07-21T04:46:30;100708.03;;;21.36;100.00
14232;BME280;7200;52.194;9.900;2022-07-21T04:48:55;100699.53;;;21.42;100.00
14232;BME280;7200;52.194;9.900;2022-07-21T04:51:21;100709.28;;;21.43;100.00
14232;BME280;7200;52.194;9.900;2022-07-21T04:53:46;100707.97;;;21.49;100.00
14232;BME280;7200;52.194;9.900;2022-07-21T04:56:11;100701.53;;;21.51;100.00
14232;BME280;7200;52.194;9.900;2022-07-21T04:58:37;100695.25;;;21.39;100.00
14232;BME280;7200;52.194;9.900;2022-07-21T05:01:02;100701.59;;;21.38;100.00
14232;BME280;7200;52.194;9.900;2022-07-21T05:03:27;100697.44;;;21.34;100.00
14232;BME280;7200;52.194;9.900;2022-07-21T05:05:53;100699.38;;;21.21;100.00
14232;BME280;7200;52.194;9.900;2022-07-21T05:08:18;100702.63;;;21.13;100.00
14232;BME280;7200;52.194;9.900;2022-07-21T05:10:43;100697.88;;;21.17;100.00
14232;BME280;7200;52.194;9.900;2022-07-21T05:13:09;100687.53;;;21.24;100.00
14232;BME280;7200;52.194;9.900;2022-07-21T05:15:34;100685.59;;;21.26;100.00
14232;BME280;7200;52.194;9.900;2022-07-21T05:17:59;100690.72;;;21.29;100.00
14232;BME280;7200;52.194;9.900;2022-07-21T05:20:25;100695.63;;;21.35;100.00
14232;BME280;7200;52.194;9.900;2022-07-21T05:22:50;100696.47;;;21.35;100.00
14232;BME280;7200;52.194;9.900;2022-07-21T05:25:15;100698.91;;;21.27;100.00
14232;BME280;7200;52.194;9.900;2022-07-21T05:27:41;100704.09;;;21.06;100.00
14232;BME280;7200;52.194;9.900;2022-07-21T05:30:07;100710.56;;;21.15;100.00
14232;BME280;7200;52.194;9.900;2022-07-21T05:32:32;100712.50;;;21.13;100.00
14232;BME280;7200;52.194;9.900;2022-07-21T05:34:58;100717.78;;;21.26;100.00
14232;BME280;7200;52.194;9.900;2022-07-21T05:37:23;100718.53;;;21.28;100.00
14232;BME280;7200;52.194;9.900;2022-07-21T05:39:48;100717.78;;;21.26;100.00
14232;BME280;7200;52.194;9.900;2022-07-21T05:42:14;100718.53;;;21.28;100.00
14232;BME280;7200;52.194;9.900;2022-07-21T05:44:39;100718.31;;;21.31;100.00
14232;BME280;7200;52.194;9.900;2022-07-21T05:47:04;100719.66;;;21.36;100.00
14232;BME280;7200;52.194;9.900;2022-07-21T05:49:30;100720.28;;;21.40;100.00
14232;BME280;7200;52.194;9.900;2022-07-21T05:52:17;100721.09;;;21.29;100.00
14232;BME280;7200;52.194;9.900;2022-07-21T05:54:52;100733.78;;;21.27;100.00
14232;BME280;7200;52.194;9.900;2022-07-21T05:57:17;100749.19;;;21.36;100.00
14232;BME280;7200;52.194;9.900;2022-07-21T05:59:44;100750.50;;;21.31;100.00
14232;BME280;7200;52.194;9.900;2022-07-21T06:02:09;100749.13;;;21.49;100.00
14232;BME280;7200;52.194;9.900;2022-07-21T06:04:35;100740.59;;;21.55;100.00
14232;BME280;7200;52.194;9.900;2022-07-21T06:07:00;100736.91;;;21.45;100.00
14232;BME280;7200;52.194;9.900;2022-07-21T06:09:25;100742.44;;;21.55;100.00
14232;BME280;7200;52.194;9.900;2022-07-21T06:11:51;100757.06;;;21.62;100.00
14232;BME280;7200;52.194;9.900;2022-07-21T06:14:16;100745.47;;;21.50;100.00
14232;BME280;7200;52.194;9.900;2022-07-21T06:16:41;100755.25;;;21.63;100.00
14232;BME280;7200;52.194;9.900;2022-07-21T06:19:07;100758.09;;;21.84;100.00
14232;BME280;7200;52.194;9.900;2022-07-21T06:21:32;100758.69;;;21.76;100.00
14232;BME280;7200;52.194;9.900;2022-07-21T06:23:58;100756.34;;;21.71;100.00
14232;BME280;7200;52.194;9.900;2022-07-21T06:26:23;100756.13;;;21.74;100.00
14232;BME280;7200;52.194;9.900;2022-07-21T06:28:48;100760.28;;;21.90;100.00
14232;BME280;7200;52.194;9.900;2022-07-21T06:31:14;100760.50;;;21.98;100.00
14232;BME280;7200;52.194;9.900;2022-07-21T06:33:39;100770.41;;;22.09;100.00
14232;BME280;7200;52.194;9.900;2022-07-21T06:36:06;100780.81;;;22.25;100.00
14232;BME280;7200;52.194;9.900;2022-07-21T06:38:32;100771.66;;;22.05;100.00
14232;BME280;7200;52.194;9.900;2022-07-21T06:40:57;100772.88;;;22.01;100.00
14232;BME280;7200;52.194;9.900;2022-07-21T06:43:22;100775.69;;;21.99;100.00
14232;BME280;7200;52.194;9.900;2022-07-21T06:45:47;100777.97;;;21.92;100.00
14232;BME280;7200;52.194;9.900;2022-07-21T06:48:13;100767.38;;;21.80;100.00
14232;BME280;7200;52.194;9.900;2022-07-21T06:50:39;100774.09;;;22.08;100.00
14232;BME280;7200;52.194;9.900;2022-07-21T06:53:05;100760.50;;;21.98;100.00
14232;BME280;7200;52.194;9.900;2022-07-21T06:55:32;100779.47;;;22.19;100.00
14232;BME280;7200;52.194;9.900;2022-07-21T06:57:58;100778.63;;;22.30;100.00
14232;BME280;7200;52.194;9.900;2022-07-21T07:00:23;100769.69;;;22.18;100.00
14232;BME280;7200;52.194;9.900;2022-07-21T07:02:49;100755.53;;;22.05;100.00
14232;BME280;7200;52.194;9.900;2022-07-21T07:05:14;100768.00;;;22.17;100.00
14232;BME280;7200;52.194;9.900;2022-07-21T07:07:40;100755.63;;;22.14;100.00
14232;BME280;7200;52.194;9.900;2022-07-21T07:10:06;100757.72;;;22.33;100.00
14232;BME280;7200;52.194;9.900;2022-07-21T07:12:31;100753.06;;;22.47;100.00
14232;BME280;7200;52.194;9.900;2022-07-21T07:14:56;100741.69;;;22.43;100.00
14232;BME280;7200;52.194;9.900;2022-07-21T07:17:22;100751.28;;;22.36;100.00
14232;BME280;7200;52.194;9.900;2022-07-21T07:19:47;100762.88;;;22.37;100.00
14232;BME280;7200;52.194;9.900;2022-07-21T07:22:13;100761.63;;;22.52;100.00
14232;BME280;7200;52.194;9.900;2022-07-21T07:24:39;100765.31;;;22.40;100.00
14232;BME280;7200;52.194;9.900;2022-07-21T07:27:04;100766.03;;;22.19;100.00
14232;BME280;7200;52.194;9.900;2022-07-21T07:29:30;100760.28;;;22.12;100.00
14232;BME280;7200;52.194;9.900;2022-07-21T07:31:57;100781.81;;;22.35;100.00
14232;BME280;7200;52.194;9.900;2022-07-21T07:34:22;100779.94;;;22.47;100.00
14232;BME280;7200;52.194;9.900;2022-07-21T07:36:47;100772.03;;;22.57;100.00
14232;BME280;7200;52.194;9.900;2022-07-21T07:39:13;100765.75;;;22.56;100.00
14232;BME280;7200;52.194;9.900;2022-07-21T07:41:41;100756.03;;;22.32;100.00
14232;BME280;7200;52.194;9.900;2022-07-21T07:44:06;100769.72;;;22.29;100.00
14232;BME280;7200;52.194;9.900;2022-07-21T07:46:31;100782.91;;;22.44;100.00
14232;BME280;7200;52.194;9.900;2022-07-21T07:48:57;100793.16;;;22.50;100.00
14232;BME280;7200;52.194;9.900;2022-07-21T07:51:22;100777.06;;;22.27;100.00
14232;BME280;7200;52.194;9.900;2022-07-21T07:53:47;100761.41;;;21.99;100.00
14232;BME280;7200;52.194;9.900;2022-07-21T07:56:13;100789.34;;;21.96;100.00
14232;BME280;7200;52.194;9.900;2022-07-21T07:58:38;100790.19;;;21.85;100.00
14232;BME280;7200;52.194;9.900;2022-07-21T08:01:03;100788.34;;;21.74;100.00
14232;BME280;7200;52.194;9.900;2022-07-21T08:03:30;100795.19;;;21.78;100.00
14232;BME280;7200;52.194;9.900;2022-07-21T08:05:56;100799.31;;;21.71;100.00
14232;BME280;7200;52.194;9.900;2022-07-21T08:08:24;100813.97;;;21.67;100.00
14232;BME280;7200;52.194;9.900;2022-07-21T08:10:50;100818.13;;;21.71;100.00
14232;BME280;7200;52.194;9.900;2022-07-21T08:13:17;100821.75;;;21.59;100.00
14232;BME280;7200;52.194;9.900;2022-07-21T08:15:44;100823.84;;;21.43;100.00
14232;BME280;7200;52.194;9.900;2022-07-21T08:18:11;100838.09;;;21.32;100.00
14232;BME280;7200;52.194;9.900;2022-07-21T08:20:37;100830.38;;;21.27;100.00
14232;BME280;7200;52.194;9.900;2022-07-21T08:23:03;100838.38;;;21.16;100.00
14232;BME280;7200;52.194;9.900;2022-07-21T08:25:28;100844.06;;;21.11;100.00
14232;BME280;7200;52.194;9.900;2022-07-21T08:27:54;100845.69;;;21.14;100.00
14232;BME280;7200;52.194;9.900;2022-07-21T08:30:19;100848.19;;;21.28;100.00
14232;BME280;7200;52.194;9.900;2022-07-21T08:32:44;100841.47;;;21.47;100.00
14232;BME280;7200;52.194;9.900;2022-07-21T08:35:10;100845.63;;;21.86;100.00
14232;BME280;7200;52.194;9.900;2022-07-21T08:37:37;100839.63;;;21.83;100.00
14232;BME280;7200;52.194;9.900;2022-07-21T08:40:08;100838.06;;;21.91;100.00
14232;BME280;7200;52.194;9.900;2022-07-21T08:42:34;100842.88;;;22.22;100.00
14232;BME280;7200;52.194;9.900;2022-07-21T08:45:00;100831.19;;;22.34;100.00
14232;BME280;7200;52.194;9.900;2022-07-21T08:47:26;100819.53;;;22.22;100.00
14232;BME280;7200;52.194;9.900;2022-07-21T08:49:53;100818.44;;;22.25;100.00
14232;BME280;7200;52.194;9.900;2022-07-21T08:52:18;100822.84;;;22.37;100.00
14232;BME280;7200;52.194;9.900;2022-07-21T08:54:44;100837.91;;;22.62;100.00
14232;BME280;7200;52.194;9.900;2022-07-21T08:57:10;100820.50;;;22.78;100.00
14232;BME280;7200;52.194;9.900;2022-07-21T08:59:35;100837.69;;;22.98;100.00
14232;BME280;7200;52.194;9.900;2022-07-21T09:02:02;100814.63;;;22.84;100.00
14232;BME280;7200;52.194;9.900;2022-07-21T09:04:28;100803.75;;;22.74;100.00
14232;BME280;7200;52.194;9.900;2022-07-21T09:06:59;100795.81;;;22.72;100.00
14232;BME280;7200;52.194;9.900;2022-07-21T09:09:26;100818.72;;;22.99;100.00
14232;BME280;7200;52.194;9.900;2022-07-21T09:11:53;100822.81;;;23.26;100.00
14232;BME280;7200;52.194;9.900;2022-07-21T09:14:21;100790.13;;;23.09;100.00
14232;BME280;7200;52.194;9.900;2022-07-21T09:16:58;100779.44;;;22.76;100.00
14232;BME280;7200;52.194;9.900;2022-07-21T09:19:31;100810.03;;;23.07;100.00
14232;BME280;7200;52.194;9.900;2022-07-21T09:21:59;100777.75;;;22.96;100.00
14232;BME280;7200;52.194;9.900;2022-07-21T09:24:37;100787.44;;;23.09;100.00
14232;BME280;7200;52.194;9.900;2022-07-21T09:29:59;100791.84;;;23.31;100.00
14232;BME280;7200;52.194;9.900;2022-07-21T09:32:30;100790.94;;;23.42;100.00
14232;BME280;7200;52.194;9.900;2022-07-21T09:34:59;100783.19;;;23.49;100.00
14232;BME280;7200;52.194;9.900;2022-07-21T09:37:25;100764.66;;;23.35;100.00
14232;BME280;7200;52.194;9.900;2022-07-21T09:39:56;100756.13;;;23.29;100.00
14232;BME280;7200;52.194;9.900;2022-07-21T09:44:51;100739.66;;;23.23;100.00
14232;BME280;7200;52.194;9.900;2022-07-21T09:47:19;100739.44;;;23.15;100.00
14232;BME280;7200;52.194;9.900;2022-07-21T09:49:45;100752.69;;;23.27;100.00
14232;BME280;7200;52.194;9.900;2022-07-21T09:52:20;100768.84;;;23.48;100.00
14232;BME280;7200;52.194;9.900;2022-07-21T09:54:45;100776.50;;;23.64;100.00
14232;BME280;7200;52.194;9.900;2022-07-21T09:57:11;100761.50;;;23.71;100.00
14232;BME280;7200;52.194;9.900;2022-07-21T09:59:48;100775.63;;;24.06;98.80
14232;BME280;7200;52.194;9.900;2022-07-21T10:02:17;100766.47;;;24.28;97.06
14232;BME280;7200;52.194;9.900;2022-07-21T10:04:45;100761.06;;;24.59;94.39
14232;BME280;7200;52.194;9.900;2022-07-21T10:07:13;100717.06;;;24.27;91.61
14232;BME280;7200;52.194;9.900;2022-07-21T10:09:39;100732.56;;;24.35;91.33
14232;BME280;7200;52.194;9.900;2022-07-21T10:12:05;100698.09;;;24.39;89.67
14232;BME280;7200;52.194;9.900;2022-07-21T10:14:30;100749.75;;;24.94;89.59
14232;BME280;7200;52.194;9.900;2022-07-21T10:16:56;100697.44;;;24.85;86.30
14232;BME280;7200;52.194;9.900;2022-07-21T10:22:21;100727.25;;;25.62;84.74
14232;BME280;7200;52.194;9.900;2022-07-21T10:24:49;100652.69;;;24.73;83.23
14232;BME280;7200;52.194;9.900;2022-07-21T10:27:15;100668.63;;;24.76;84.81
14232;BME280;7200;52.194;9.900;2022-07-21T10:29:54;100677.28;;;25.09;82.15
14232;BME280;7200;52.194;9.900;2022-07-21T10:32:22;100666.63;;;24.98;83.54
14232;BME280;7200;52.194;9.900;2022-07-21T10:34:48;100658.81;;;24.95;84.08
14232;BME280;7200;52.194;9.900;2022-07-21T10:47:56;100638.06;;;25.15;80.95
14232;BME280;7200;52.194;9.900;2022-07-21T10:50:36;100642.50;;;24.86;82.57
14232;BME280;7200;52.194;9.900;2022-07-21T10:53:03;100640.19;;;24.92;83.36
14232;BME280;7200;52.194;9.900;2022-07-21T10:55:31;100634.94;;;24.90;83.16
14232;BME280;7200;52.194;9.900;2022-07-21T11:00:49;100635.81;;;24.81;85.74
14232;BME280;7200;52.194;9.900;2022-07-21T11:06:18;100646.50;;;25.49;83.94
14232;BME280;7200;52.194;9.900;2022-07-21T11:08:46;100657.34;;;25.77;83.62
14232;BME280;7200;52.194;9.900;2022-07-21T11:14:03;100598.25;;;25.27;80.81
14232;BME280;7200;52.194;9.900;2022-07-21T11:19:48;100626.00;;;24.90;84.22
14232;BME280;7200;52.194;9.900;2022-07-21T11:22:20;100613.38;;;24.80;84.60
14232;BME280;7200;52.194;9.900;2022-07-21T11:24:48;100612.66;;;24.78;84.73
14232;BME280;7200;52.194;9.900;2022-07-21T11:27:19;100655.09;;;25.15;84.77
14232;BME280;7200;52.194;9.900;2022-07-21T11:29:47;100656.97;;;24.95;89.84
14232;BME280;7200;52.194;9.900;2022-07-21T11:32:13;100633.75;;;24.15;95.46
14232;BME280;7200;52.194;9.900;2022-07-21T11:34:44;100666.28;;;24.23;97.63
14232;BME280;7200;52.194;9.900;2022-07-21T11:37:11;100688.13;;;24.29;98.69
14232;BME280;7200;52.194;9.900;2022-07-21T11:39:37;100689.94;;;24.79;98.49
14232;BME280;7200;52.194;9.900;2022-07-21T11:42:11;100695.28;;;25.18;95.85
14232;BME280;7200;52.194;9.900;2022-07-21T11:44:37;100700.59;;;25.67;93.53
14232;BME280;7200;52.194;9.900;2022-07-21T11:47:04;100666.16;;;25.79;88.80
14232;BME280;7200;52.194;9.900;2022-07-21T11:49:30;100647.66;;;25.74;86.98
14232;BME280;7200;52.194;9.900;2022-07-21T11:52:06;100651.56;;;25.90;85.99
14232;BME280;7200;52.194;9.900;2022-07-21T11:54:52;100627.41;;;25.88;84.56
14232;BME280;7200;52.194;9.900;2022-07-21T11:57:20;100629.53;;;25.94;84.38
14232;BME280;7200;52.194;9.900;2022-07-21T11:59:47;100616.41;;;25.34;88.44
14232;BME280;7200;52.194;9.900;2022-07-21T12:02:15;100682.00;;;25.64;94.21
14232;BME280;7200;52.194;9.900;2022-07-21T12:07:27;100655.25;;;25.04;99.17
14232;BME280;7200;52.194;9.900;2022-07-21T12:09:55;100664.22;;;24.65;100.00
14232;BME280;7200;52.194;9.900;2022-07-21T12:15:24;100674.75;;;24.18;100.00
14232;BME280;7200;52.194;9.900;2022-07-21T12:17:55;100691.50;;;24.12;100.00
14232;BME280;7200;52.194;9.900;2022-07-21T12:20:42;100684.91;;;23.95;100.00
14232;BME280;7200;52.194;9.900;2022-07-21T12:23:22;100694.88;;;24.04;100.00
14232;BME280;7200;52.194;9.900;2022-07-21T12:25:49;100697.91;;;23.80;100.00
14232;BME280;7200;52.194;9.900;2022-07-21T12:28:14;100708.06;;;23.77;100.00
14232;BME280;7200;52.194;9.900;2022-07-21T12:30:50;100708.69;;;23.80;100.00
14232;BME280;7200;52.194;9.900;2022-07-21T12:33:20;100732.19;;;23.78;100.00
14232;BME280;7200;52.194;9.900;2022-07-21T12:36:03;100733.19;;;23.77;100.00
14232;BME280;7200;52.194;9.900;2022-07-21T12:38:40;100738.84;;;24.05;100.00
14232;BME280;7200;52.194;9.900;2022-07-21T12:41:06;100749.28;;;24.29;100.00
14232;BME280;7200;52.194;9.900;2022-07-21T12:43:32;100727.72;;;24.29;100.00
14232;BME280;7200;52.194;9.900;2022-07-21T12:48:33;100738.97;;;24.44;100.00
14232;BME280;7200;52.194;9.900;2022-07-21T12:53:37;100700.44;;;24.92;100.00
14232;BME280;7200;52.194;9.900;2022-07-21T12:56:03;100687.25;;;24.70;100.00
14232;BME280;7200;52.194;9.900;2022-07-21T12:58:28;100691.16;;;24.46;100.00
14232;BME280;7200;52.194;9.900;2022-07-21T13:00:55;100704.97;;;24.62;100.00
14232;BME280;7200;52.194;9.900;2022-07-21T13:03:20;100689.63;;;24.63;100.00
14232;BME280;7200;52.194;9.900;2022-07-21T13:05:46;100691.75;;;24.79;100.00
14232;BME280;7200;52.194;9.900;2022-07-21T13:08:11;100690.34;;;24.55;100.00
14232;BME280;7200;52.194;9.900;2022-07-21T13:10:37;100725.28;;;24.96;100.00
14232;BME280;7200;52.194;9.900;2022-07-21T13:13:02;100727.69;;;25.48;100.00
14232;BME280;7200;52.194;9.900;2022-07-21T13:15:28;100682.91;;;25.35;96.51
14232;BME280;7200;52.194;9.900;2022-07-21T13:17:53;100662.94;;;25.66;89.42
14232;BME280;7200;52.194;9.900;2022-07-21T13:20:19;100673.03;;;25.63;91.05
14232;BME280;7200;52.194;9.900;2022-07-21T13:22:44;100668.34;;;25.56;88.27
14232;BME280;7200;52.194;9.900;2022-07-21T13:25:11;100688.75;;;25.78;90.76
14232;BME280;7200;52.194;9.900;2022-07-21T13:27:37;100649.66;;;25.35;89.24
14232;BME280;7200;52.194;9.900;2022-07-21T13:30:04;100624.19;;;25.47;86.80
14232;BME280;7200;52.194;9.900;2022-07-21T13:32:30;100628.75;;;25.37;85.94